Eagle Boston — 9VHI — position and weather

sailwx.info

Track history (hours):
 
Tides and Currents Weather Stations Pressure Air Temp Water Temp Dewpoint Dewpoint Depression Visibility Wind Speed Wind Dir Waves Ship Positions

Eagle Boston

Last reported at 2016-Oct-31 10:31 UTC. Time now 2016-Dec-03 13:44 UTC.
Position N 25°14' E 056°31'.
Warning: this ship's position is 33 days out of date.

Length 254 m; draft 8 m.

Type: Tanker. MMSI: 564004000.

Date/timePositionNaut miles runAvg speedWind from/ knotsBaromVisibWave heightAir tempDewpointWater temp
2016-Oct-31 10:31N 25°14' E 056°31'0 0.0
2016-Oct-31 09:31N 25°14' E 056°31'0 0.0
2016-Oct-31 08:31N 25°14' E 056°31'0 0.0
2016-Oct-31 07:31N 25°14' E 056°31'0 0.2
2016-Oct-31 06:33N 25°14' E 056°31'17 5.7
2016-Oct-31 03:33N 25°08' E 056°49'9513.7
2016-Oct-30 20:33N 24°50' E 058°33'10014.2
2016-Oct-30 13:33N 24°39' E 060°21'1414.4
2016-Oct-30 12:33N 24°38' E 060°37'1414.3
2016-Oct-30 11:33N 24°38' E 060°53'4314.2
2016-Oct-30 08:33N 24°34' E 061°40'1413.8
2016-Oct-30 07:33N 24°29' E 061°54'46212.7
2016-Oct-28 19:03N 20°29' E 069°02'6213.8
2016-Oct-28 14:33N 19°35' E 069°34'6913.7
2016-Oct-28 09:33N 18°36' E 070°11'1414.1
2016-Oct-28 08:33N 18°29' E 070°24'1413.9
2016-Oct-28 07:33N 18°23' E 070°37'9513.6
2016-Oct-28 00:33N 17°16' E 071°48'1313.4
2016-Oct-27 23:33N 17°07' E 071°59'2713.6
2016-Oct-27 21:33N 16°50' E 072°21'21713.6
2016-Oct-27 05:33N 13°33' E 073°55'1313.4
2016-Oct-27 04:33N 13°21' E 074°00'1313.4
2016-Oct-27 03:34N 13°08' E 074°06'31 4.8
2016-Oct-26 21:04N 12°40' E 074°20'6513.8
2016-Oct-26 16:21N 11°36' E 074°29'22 1.8
2016-Oct-26 04:19N 11°15' E 074°34'2 0.3
2016-Oct-25 23:33N 11°15' E 074°36'1 0.4
2016-Oct-25 21:28N 11°16' E 074°37'  
Track history (hours):
 
Tides and Currents Weather Stations Pressure Air Temp Water Temp Dewpoint Dewpoint Depression Visibility Wind Speed Wind Dir Waves Ship Positions

Eagle Boston

Last reported at 2016-Oct-31 10:31 UTC. Time now 2016-Dec-03 13:44 UTC.
Position N 25°14' E 056°31'.
Warning: this ship's position is 33 days out of date.

Length 254 m; draft 8 m.

Type: Tanker. MMSI: 564004000.

Date/timePositionNaut miles runAvg speedWind from/ knotsBaromVisibWave heightAir tempDewpointWater temp
2016-Oct-31 10:31N 25°14' E 056°31'0 0.0
2016-Oct-31 09:31N 25°14' E 056°31'0 0.0
2016-Oct-31 08:31N 25°14' E 056°31'0 0.0
2016-Oct-31 07:31N 25°14' E 056°31'0 0.2
2016-Oct-31 06:33N 25°14' E 056°31'17 5.7
2016-Oct-31 03:33N 25°08' E 056°49'9513.7
2016-Oct-30 20:33N 24°50' E 058°33'10014.2
2016-Oct-30 13:33N 24°39' E 060°21'1414.4
2016-Oct-30 12:33N 24°38' E 060°37'1414.3
2016-Oct-30 11:33N 24°38' E 060°53'4314.2
2016-Oct-30 08:33N 24°34' E 061°40'1413.8
2016-Oct-30 07:33N 24°29' E 061°54'46212.7
2016-Oct-28 19:03N 20°29' E 069°02'6213.8
2016-Oct-28 14:33N 19°35' E 069°34'6913.7
2016-Oct-28 09:33N 18°36' E 070°11'1414.1
2016-Oct-28 08:33N 18°29' E 070°24'1413.9
2016-Oct-28 07:33N 18°23' E 070°37'9513.6
2016-Oct-28 00:33N 17°16' E 071°48'1313.4
2016-Oct-27 23:33N 17°07' E 071°59'2713.6
2016-Oct-27 21:33N 16°50' E 072°21'21713.6
2016-Oct-27 05:33N 13°33' E 073°55'1313.4
2016-Oct-27 04:33N 13°21' E 074°00'1313.4
2016-Oct-27 03:34N 13°08' E 074°06'31 4.8
2016-Oct-26 21:04N 12°40' E 074°20'6513.8
2016-Oct-26 16:21N 11°36' E 074°29'22 1.8
2016-Oct-26 04:19N 11°15' E 074°34'2 0.3
2016-Oct-25 23:33N 11°15' E 074°36'1 0.4
2016-Oct-25 21:28N 11°16' E 074°37'  

Dump ship's entire track history